LFKC/CLY METAR and TAF weather

Enter ICAO airport designator
Station Type Date Time Source
LFKC METAR 2020/09/28 08:30 UTC NOAA

LFKC 280830Z AUTO 19010KT 170V230 CAVOK 18/10 Q1007 BECMG 22015G27KT


Station Type Date Time Source
LFKC Decoded METAR 2020/09/28 08:30 UTC NOAA

Calvi, France (LFKC) 42-32N 008-48E 58M
Sep 28, 2020 - 04:30 AM EDT / 2020.09.28 0830 UTC
Wind: from the S (190 degrees) at 12 MPH (10 KT) (direction variable):0
Visibility: greater than 7 mile(s):0
Temperature: 64 F (18 C)
Dew Point: 50 F (10 C)
Relative Humidity: 59%
Pressure (altimeter): 29.74 in. Hg (1007 hPa)
ob: LFKC 280830Z AUTO 19010KT 170V230 CAVOK 18/10 Q1007 BECMG 22015G27KT
cycle: 8

Station Type Date Time Source
LFKC TAF 2020/09/28 04:18 UTC NOAA

TAF
AMD LFKC 280415Z 2804/2903 22010KT 9999 NSC TX21/2812Z TN13/2903Z
TEMPO 2804/2806 SHRA SCT020CB BKN040
BECMG 2807/2810 22015G27KT SCT030
BECMG 2819/2822 18006KT

Example: see airport list